Time;durP1;ratioP1;P1;durP2;ratioP2;P2;SDS_P1;SDS_P2;PMS_P1;PMS_P2;Temp;Humidity;BMP_temperature;BMP_pressure;BME280_temperature;BME280_humidity;BME280_pressure;Samples;Min_cycle;Max_cycle;Signal;HPM_P1;HPM_P2
2022/06/13 00:02:40;;;;;;;8.10;3.20;;;;;;;16.70;63.15;100429.03;4941502;29;20126;-54
2022/06/13 00:05:27;;;;;;;6.85;2.92;;;;;;;16.69;63.02;100430.78;4941671;29;20549;-55
2022/06/13 00:08:16;;;;;;;4.55;2.63;;;;;;;16.68;63.15;100421.19;4941834;29;20050;-55
2022/06/13 00:11:05;;;;;;;7.43;3.40;;;;;;;16.68;63.01;100426.44;4941882;29;20094;-55
2022/06/13 00:13:58;;;;;;;7.25;2.83;;;;;;;16.67;63.30;100421.19;4941459;29;20053;-55
2022/06/13 00:16:45;;;;;;;6.73;2.73;;;;;;;16.68;62.90;100417.69;4956131;29;20402;-55
2022/06/13 00:19:32;;;;;;;6.57;2.55;;;;;;;16.68;63.00;100422.94;4941526;29;20050;-55
2022/06/13 00:22:16;;;;;;;5.25;2.40;;;;;;;16.67;62.93;100421.19;4955929;29;20054;-55
2022/06/13 00:25:03;;;;;;;5.15;2.88;;;;;;;16.66;63.07;100420.34;4941541;29;20051;-55
2022/06/13 00:27:53;;;;;;;3.83;2.55;;;;;;;16.64;63.07;100409.00;4941143;29;20098;-56
2022/06/13 00:30:40;;;;;;;6.63;2.67;;;;;;;16.64;62.87;100408.13;4955571;29;20062;-56
2022/06/13 00:33:29;;;;;;;6.95;2.63;;;;;;;16.64;62.92;100419.47;4941156;29;20080;-55
2022/06/13 00:36:21;;;;;;;5.15;2.58;;;;;;;16.64;62.96;100413.38;4941529;29;20058;-55
2022/06/13 00:39:08;;;;;;;8.38;3.05;;;;;;;16.63;63.02;100417.72;4941461;29;20054;-55
2022/06/13 00:41:53;;;;;;;6.80;2.58;;;;;;;16.62;63.09;100402.88;4941172;29;20043;-55
2022/06/13 00:44:38;;;;;;;5.95;2.47;;;;;;;16.61;62.90;100402.91;4955476;29;20089;-55
2022/06/13 00:47:30;;;;;;;4.50;2.33;;;;;;;16.60;62.98;100399.41;4941281;29;20451;-55
2022/06/13 00:50:26;;;;;;;6.10;3.17;;;;;;;16.59;62.92;100402.91;4941486;29;20483;-55
2022/06/13 00:53:23;;;;;;;5.93;2.40;;;;;;;16.56;62.91;100403.78;4940517;29;20563;-55
2022/06/13 00:56:14;;;;;;;5.22;2.60;;;;;;;16.56;63.03;100402.94;4955455;29;20066;-55
2022/06/13 00:59:02;;;;;;;10.70;3.90;;;;;;;16.55;62.97;100403.81;4941352;29;20071;-55
2022/06/13 01:01:52;;;;;;;5.57;2.80;;;;;;;16.54;62.76;100397.69;4954860;29;20066;-55
2022/06/13 01:04:40;;;;;;;7.20;2.80;;;;;;;16.54;62.88;100404.69;4941346;29;20090;-55
2022/06/13 01:07:29;;;;;;;7.95;3.33;;;;;;;16.52;62.84;100398.56;4941133;29;20078;-56
2022/06/13 01:13:41;;;;;;;7.88;3.00;;;;;;;16.50;62.84;100398.59;4955088;29;20054;-55
2022/06/13 01:16:59;;;;;;;3.50;2.30;;;;;;;16.48;62.82;100400.34;4955192;29;20168;-55
2022/06/13 01:20:21;;;;;;;5.22;2.75;;;;;;;16.47;62.59;100398.59;4955167;29;20050;-55
2022/06/13 01:23:33;;;;;;;7.85;3.53;;;;;;;16.45;62.67;100395.09;4940445;29;20514;-56
2022/06/13 01:26:27;;;;;;;6.10;3.20;;;;;;;16.45;62.78;100405.56;4955440;29;20466;-57
2022/06/13 01:29:31;;;;;;;9.75;3.10;;;;;;;16.45;62.70;100405.56;4954946;29;20549;-55
2022/06/13 01:32:34;;;;;;;6.13;3.17;;;;;;;16.42;62.86;100416.03;4954967;29;20186;-55
2022/06/13 01:35:38;;;;;;;8.23;3.45;;;;;;;16.42;62.74;100416.03;4940551;29;20055;-55
2022/06/13 01:38:39;;;;;;;6.40;3.35;;;;;;;16.40;62.57;100412.53;4940497;29;20058;-55
2022/06/13 01:41:44;;;;;;;8.00;3.65;;;;;;;16.38;62.83;100412.56;4940889;29;20411;-55
2022/06/13 01:44:55;;;;;;;5.30;2.75;;;;;;;16.36;62.48;100414.31;4955398;29;20050;-55
2022/06/13 01:47:59;;;;;;;8.57;3.25;;;;;;;16.36;62.78;100416.03;4940635;29;20046;-55
2022/06/13 01:51:10;;;;;;;5.80;3.25;;;;;;;16.35;62.39;100420.41;4955020;29;20411;-55
2022/06/13 01:54:27;;;;;;;10.55;3.95;;;;;;;16.34;62.55;100425.66;4940318;29;20059;-57
2022/06/13 01:57:14;;;;;;;5.78;2.90;;;;;;;16.34;62.72;100436.13;4940793;29;20407;-56
2022/06/13 02:00:10;;;;;;;7.30;3.15;;;;;;;16.32;62.49;100435.25;4940187;29;20133;-57
2022/06/13 02:03:09;;;;;;;7.57;3.03;;;;;;;16.30;62.48;100432.63;4954851;29;20066;-56
2022/06/13 02:06:04;;;;;;;6.38;3.47;;;;;;;16.31;62.49;100434.34;4955774;28;20050;-56
2022/06/13 02:08:56;;;;;;;4.55;2.78;;;;;;;16.28;62.51;100434.34;4944177;29;20053;-55
2022/06/13 02:11:54;;;;;;;6.95;3.67;;;;;;;16.28;62.10;100432.63;4943961;29;20050;-55
2022/06/13 02:14:49;;;;;;;6.53;3.22;;;;;;;16.26;62.29;100429.13;4958152;29;20050;-57
2022/06/13 02:17:40;;;;;;;;;;;;;;;16.26;62.28;100430.91;4958401;29;20122;-55
2022/06/13 02:20:35;;;;;;;7.95;3.10;;;;;;;16.23;62.38;100426.53;4944004;29;19925;-55
2022/06/13 02:23:30;;;;;;;5.05;3.08;;;;;;;16.22;62.47;100419.53;4943806;29;20050;-55
2022/06/13 02:26:24;;;;;;;9.05;3.00;;;;;;;16.21;62.39;100417.81;4958218;29;20176;-55
2022/06/13 02:29:21;;;;;;;9.77;3.65;;;;;;;16.20;62.24;100418.69;4943808;29;20046;-55
2022/06/13 02:32:26;;;;;;;6.20;3.15;;;;;;;16.21;62.22;100417.81;4943638;29;20207;-55
2022/06/13 02:35:27;;;;;;;6.60;3.58;;;;;;;16.18;62.30;100404.75;4957541;29;20102;-55
2022/06/13 02:38:24;;;;;;;11.65;3.65;;;;;;;16.18;62.33;100398.66;4957817;29;20049;-55
2022/06/13 02:41:13;;;;;;;6.93;3.42;;;;;;;16.17;62.46;100403.00;4943564;29;20419;-55
2022/06/13 02:44:13;;;;;;;6.70;4.00;;;;;;;16.17;62.27;100396.91;4943566;29;20053;-55
2022/06/13 02:47:09;;;;;;;6.70;3.65;;;;;;;16.16;62.29;100401.28;4943326;29;20054;-55
2022/06/13 02:50:02;;;;;;;9.27;4.57;;;;;;;16.15;62.09;100396.91;4957502;29;20090;-55
2022/06/13 02:53:10;;;;;;;6.28;3.75;;;;;;;16.15;62.25;100402.13;4943111;29;20086;-55
2022/06/13 02:56:09;;;;;;;9.35;4.57;;;;;;;16.13;62.29;100398.66;4957039;29;20094;-55
2022/06/13 02:59:11;;;;;;;7.18;3.50;;;;;;;16.13;62.22;100401.25;4943371;29;20414;-55
2022/06/13 03:02:06;;;;;;;7.90;3.50;;;;;;;16.12;62.34;100403.00;4942722;29;20415;-55
2022/06/13 03:05:25;;;;;;;;;;;;;;;16.10;62.07;100403.88;4943197;29;20062;-55
2022/06/13 03:08:24;;;;;;;10.95;4.15;;;;;;;16.09;62.23;100394.28;4957369;29;19926;-55
2022/06/13 03:11:26;;;;;;;11.65;4.65;;;;;;;16.09;62.36;100389.94;4957459;29;20164;-55
2022/06/13 03:14:22;;;;;;;14.18;4.20;;;;;;;16.09;62.23;100394.28;4957203;29;20089;-55
2022/06/13 03:17:33;;;;;;;5.75;3.75;;;;;;;16.09;62.40;100394.28;4942364;29;20134;-56
2022/06/13 03:20:27;;;;;;;9.55;4.10;;;;;;;16.07;62.30;100396.91;4942613;29;20114;-55
2022/06/13 03:23:26;;;;;;;7.00;3.70;;;;;;;16.07;62.22;100398.66;4942889;29;20569;-55
2022/06/13 03:26:20;;;;;;;11.45;4.88;;;;;;;16.07;62.15;100401.25;4942978;29;20054;-55
2022/06/13 03:29:20;;;;;;;10.60;4.43;;;;;;;16.07;62.63;100391.69;4942128;29;20042;-55
2022/06/13 03:32:19;;;;;;;6.20;3.72;;;;;;;16.06;62.34;100396.91;4942440;29;20518;-56
2022/06/13 03:35:14;;;;;;;8.52;4.05;;;;;;;16.04;62.39;100390.84;4956432;29;20130;-55
2022/06/13 03:38:08;;;;;;;8.25;3.95;;;;;;;16.04;62.39;100404.75;4956608;29;20142;-56
2022/06/13 03:41:01;;;;;;;8.95;3.72;;;;;;;16.04;62.26;100396.06;4956517;29;20070;-55
2022/06/13 03:43:55;;;;;;;7.22;4.00;;;;;;;16.04;62.07;100409.13;4957048;29;20085;-55
2022/06/13 03:46:58;;;;;;;10.55;4.25;;;;;;;16.02;62.31;100414.34;4956772;29;20050;-55
2022/06/13 03:49:47;;;;;;;9.38;4.45;;;;;;;16.00;62.27;100416.09;4956157;29;20094;-55
2022/06/13 03:52:36;;;;;;;8.50;3.50;;;;;;;16.02;62.33;100413.50;4941979;29;20058;-56
2022/06/13 03:55:31;;;;;;;11.88;4.10;;;;;;;16.01;62.67;100422.19;4942256;29;20050;-56
2022/06/13 03:58:23;;;;;;;6.50;3.35;;;;;;;16.00;62.49;100421.31;4941963;29;20081;-55
2022/06/13 04:01:26;;;;;;;8.65;3.80;;;;;;;16.01;62.37;100419.59;4941872;29;20047;-55
2022/06/13 04:04:23;;;;;;;8.85;4.25;;;;;;;16.00;62.49;100421.31;4942153;29;20050;-56
2022/06/13 04:07:12;;;;;;;7.63;3.90;;;;;;;16.00;62.56;100417.84;4942099;29;20123;-55
2022/06/13 04:10:15;;;;;;;9.95;4.47;;;;;;;15.99;62.47;100430.03;4942246;29;20130;-55
2022/06/13 04:13:07;;;;;;;15.73;5.10;;;;;;;15.98;62.40;100430.88;4956134;29;20105;-55
2022/06/13 04:16:13;;;;;;;6.15;3.55;;;;;;;15.99;62.61;100432.63;4955956;29;20054;-55
2022/06/13 04:19:15;;;;;;;8.67;4.27;;;;;;;16.00;62.67;100429.16;4941803;29;20050;-55
2022/06/13 04:22:20;;;;;;;8.98;4.20;;;;;;;15.98;62.74;100425.66;4955563;29;20525;-56
2022/06/13 04:25:14;;;;;;;10.13;4.68;;;;;;;15.98;62.88;100426.56;4955682;29;20589;-55
2022/06/13 04:28:23;;;;;;;8.55;3.88;;;;;;;15.97;62.86;100427.41;4941082;28;20050;-55
2022/06/13 04:31:11;;;;;;;10.82;4.22;;;;;;;15.97;62.88;100422.19;4941171;29;20050;-55
2022/06/13 04:34:03;;;;;;;10.10;4.45;;;;;;;15.98;63.15;100430.88;4940962;29;20109;-55
2022/06/13 04:36:57;;;;;;;8.52;4.95;;;;;;;15.98;63.04;100423.94;4956009;29;20046;-55
2022/06/13 04:39:43;;;;;;;13.43;4.90;;;;;;;15.97;62.94;100432.66;4955872;29;20047;-55
2022/06/13 04:42:32;;;;;;;13.38;4.57;;;;;;;15.95;63.03;100442.22;4941534;29;20081;-55
2022/06/13 04:45:31;;;;;;;10.38;4.60;;;;;;;15.95;63.08;100438.75;4941376;29;20131;-55
2022/06/13 04:48:21;;;;;;;8.35;4.80;;;;;;;15.94;63.01;100435.25;4940783;29;20538;-55
2022/06/13 04:51:22;;;;;;;12.00;4.70;;;;;;;15.95;63.19;100433.53;4940875;29;20098;-55
2022/06/13 04:54:16;;;;;;;7.68;4.25;;;;;;;15.96;63.18;100445.72;4940775;29;20410;-55
2022/06/13 04:57:07;;;;;;;10.63;4.50;;;;;;;15.93;63.30;100445.72;4941206;29;20046;-55
2022/06/13 04:59:51;;;;;;;13.57;4.15;;;;;;;15.93;63.14;100449.19;4955544;29;20054;-54
2022/06/13 05:02:42;;;;;;;14.73;5.15;;;;;;;15.95;63.33;100457.06;4955150;29;20518;-55
2022/06/13 05:05:41;;;;;;;10.65;4.75;;;;;;;15.94;63.41;100455.31;4940917;29;20043;-55
2022/06/13 05:08:34;;;;;;;10.95;5.18;;;;;;;15.90;63.46;100467.47;4941393;29;20054;-55
2022/06/13 05:11:30;;;;;;;12.07;4.63;;;;;;;15.87;63.78;100458.78;4955550;29;20118;-55
2022/06/13 05:14:25;;;;;;;16.20;5.80;;;;;;;15.88;63.58;100469.25;4940796;29;20110;-55
2022/06/13 05:17:47;;;;;;;13.23;5.72;;;;;;;15.88;63.50;100468.38;4940932;29;20459;-55
2022/06/13 05:20:45;;;;;;;13.93;4.95;;;;;;;15.88;63.70;100477.09;4955039;29;20082;-55
2022/06/13 05:23:50;;;;;;;14.20;4.95;;;;;;;15.90;63.82;100469.25;4940830;29;20075;-55
2022/06/13 05:26:41;;;;;;;9.45;5.15;;;;;;;15.86;64.21;100471.00;4940552;29;20130;-56
2022/06/13 05:29:30;;;;;;;14.52;5.78;;;;;;;15.86;63.74;100468.38;4941079;29;20050;-55
2022/06/13 05:32:19;;;;;;;12.07;4.38;;;;;;;15.88;63.85;100479.69;4940703;29;20098;-55
2022/06/13 05:35:09;;;;;;;14.75;5.55;;;;;;;15.86;64.03;100481.44;4940914;29;20046;-56
2022/06/13 05:38:02;;;;;;;12.98;5.32;;;;;;;15.83;63.95;100474.41;4940332;29;20054;-55
2022/06/13 05:40:49;;;;;;;15.07;6.13;;;;;;;15.83;64.07;100478.78;4955865;28;20102;-55
2022/06/13 05:43:33;;;;;;;11.27;6.13;;;;;;;15.80;64.25;100471.78;4944590;29;20131;-55
2022/06/13 05:46:27;;;;;;;15.82;5.47;;;;;;;15.82;64.16;100484.88;4944627;29;20049;-55
2022/06/13 05:49:19;;;;;;;12.80;5.53;;;;;;;15.85;64.20;100487.53;4944147;29;20054;-55
2022/06/13 05:52:05;;;;;;;16.20;6.75;;;;;;;15.84;64.21;100485.75;4944518;29;20074;-55
2022/06/13 05:54:56;;;;;;;14.98;6.28;;;;;;;15.86;64.35;100488.41;4944501;29;20554;-55
2022/06/13 05:57:42;;;;;;;14.60;6.32;;;;;;;15.88;64.38;100491.88;4943828;29;20424;-55
2022/06/13 06:00:33;;;;;;;14.85;5.75;;;;;;;15.89;64.37;100488.41;4958384;29;20094;-56
2022/06/13 06:03:17;;;;;;;15.20;5.18;;;;;;;15.90;64.33;100501.47;4943980;29;20074;-55
2022/06/13 06:06:06;;;;;;;14.95;6.47;;;;;;;15.92;64.37;100501.47;4958276;29;20051;-55
2022/06/13 06:08:54;;;;;;;19.33;6.15;;;;;;;15.91;64.49;100503.19;4958293;29;20079;-55
2022/06/13 06:11:38;;;;;;;17.73;6.30;;;;;;;15.92;64.51;100499.72;4943971;29;20101;-55
2022/06/13 06:14:22;;;;;;;13.75;5.38;;;;;;;15.95;64.36;100509.34;4957954;29;20051;-55
2022/06/13 06:17:12;;;;;;;12.95;5.25;;;;;;;15.95;64.35;100509.34;4958623;29;20478;-57
2022/06/13 06:19:59;;;;;;;11.20;5.88;;;;;;;15.97;64.66;100507.56;4943731;29;20057;-55
2022/06/13 06:22:43;;;;;;;14.35;6.03;;;;;;;15.99;64.59;100518.91;4957989;29;20124;-55
2022/06/13 06:25:30;;;;;;;10.07;5.50;;;;;;;15.98;64.65;100517.16;4943051;29;20050;-55
2022/06/13 06:28:19;;;;;;;20.05;6.43;;;;;;;15.96;64.77;100524.16;4943608;29;20598;-56
2022/06/13 06:31:03;;;;;;;14.40;6.03;;;;;;;15.97;64.51;100524.13;4943939;29;20050;-55
2022/06/13 06:33:51;;;;;;;16.30;6.50;;;;;;;15.97;64.66;100525.88;4943456;29;20046;-55
2022/06/13 06:36:35;;;;;;;13.35;5.68;;;;;;;15.97;64.84;100524.13;4958130;29;20074;-55
2022/06/13 06:39:22;;;;;;;16.13;6.22;;;;;;;15.96;64.90;100538.06;4957906;29;20058;-55
2022/06/13 06:42:06;;;;;;;14.10;6.57;;;;;;;15.96;65.07;100534.59;4943004;29;20102;-56
2022/06/13 06:45:02;;;;;;;12.75;6.50;;;;;;;15.95;65.01;100536.31;4957733;29;20102;-55
2022/06/13 06:47:49;;;;;;;16.08;7.40;;;;;;;15.98;65.20;100541.56;4957838;29;20051;-55
2022/06/13 06:50:38;;;;;;;20.67;7.68;;;;;;;15.99;65.23;100545.03;4957755;29;20086;-55
2022/06/13 06:59:53;;;;;;;20.50;7.75;;;;;;;15.98;65.16;100548.53;4942999;29;20139;-55
2022/06/13 06:59:53;;;;;;;17.90;7.40;;;;;;;15.97;65.42;100549.38;4957427;29;20516;-55
2022/06/13 07:02:37;;;;;;;18.20;7.47;;;;;;;15.97;65.33;100547.66;4942635;29;20581;-56
2022/06/13 07:05:21;;;;;;;18.20;8.32;;;;;;;16.00;65.23;100544.16;4957711;29;20615;-57
2022/06/13 07:08:11;;;;;;;18.20;7.72;;;;;;;16.01;65.22;100542.44;4957570;29;20058;-56
2022/06/13 07:11:53;;;;;;;27.25;8.93;;;;;;;16.00;65.53;100544.16;4942939;29;20123;-56
2022/06/13 07:14:04;;;;;;;20.35;7.68;;;;;;;16.02;65.57;100547.66;4957213;28;20582;-56
2022/06/13 07:16:51;;;;;;;21.98;8.07;;;;;;;16.03;65.43;100548.56;4957331;29;20049;-56
2022/06/13 07:19:36;;;;;;;22.00;8.25;;;;;;;16.04;65.28;100545.06;4942462;29;20046;-56
2022/06/13 07:22:23;;;;;;;22.70;9.57;;;;;;;16.02;65.76;100547.66;4957473;29;20105;-56
2022/06/13 07:25:13;;;;;;;22.00;9.20;;;;;;;16.05;65.69;100546.78;4942566;29;20058;-56
2022/06/13 07:28:03;;;;;;;17.48;9.93;;;;;;;16.08;65.57;100562.47;4942806;29;20455;-57
2022/06/13 07:30:53;;;;;;;25.83;9.40;;;;;;;16.07;65.80;100565.97;4942950;29;20089;-56
2022/06/13 07:33:46;;;;;;;20.98;9.05;;;;;;;16.06;65.80;100559.88;4956853;29;20046;-56
2022/06/13 07:36:36;;;;;;;19.52;7.72;;;;;;;16.08;65.74;100568.59;4942536;29;20517;-56
2022/06/13 07:39:22;;;;;;;14.85;8.52;;;;;;;16.09;65.67;100566.84;4942329;29;20563;-55
2022/06/13 07:42:07;;;;;;;21.70;9.00;;;;;;;16.09;65.67;100566.84;4942582;29;20055;-55
2022/06/13 07:44:50;;;;;;;19.95;7.97;;;;;;;16.11;65.56;100567.72;4942334;29;20055;-55
2022/06/13 07:47:37;;;;;;;13.93;7.82;;;;;;;16.10;65.72;100576.44;4956650;29;20049;-55
2022/06/13 07:50:27;;;;;;;17.58;7.07;;;;;;;16.08;65.67;100571.22;4942249;29;20054;-55
2022/06/13 07:53:16;;;;;;;13.82;7.60;;;;;;;16.09;65.71;100580.81;4942081;29;20407;-56
2022/06/13 07:56:06;;;;;;;23.58;8.77;;;;;;;16.10;65.88;100579.06;4956216;29;20109;-55
2022/06/13 07:58:55;;;;;;;16.77;6.97;;;;;;;16.12;65.83;100586.00;4941908;29;20079;-55
2022/06/13 08:01:39;;;;;;;19.13;7.70;;;;;;;16.12;65.95;100588.63;4941957;29;20106;-55
2022/06/13 08:04:28;;;;;;;17.42;7.75;;;;;;;16.13;65.73;100585.16;4955385;28;20050;-55
2022/06/13 08:07:17;;;;;;;21.33;7.72;;;;;;;16.11;65.84;100584.31;4941761;29;20529;-55
2022/06/13 08:10:01;;;;;;;19.08;7.40;;;;;;;16.10;65.65;100582.56;4941531;29;20086;-55
2022/06/13 08:12:45;;;;;;;13.85;7.20;;;;;;;16.13;65.70;100592.13;4955707;29;20430;-55
2022/06/13 08:15:32;;;;;;;13.32;7.15;;;;;;;16.13;65.84;100587.75;4956404;29;20571;-55
2022/06/13 08:18:17;;;;;;;20.52;7.97;;;;;;;16.14;65.68;100592.13;4941156;29;20050;-56
2022/06/13 08:21:01;;;;;;;14.43;6.50;;;;;;;16.15;65.77;100590.41;4956199;29;20105;-55
2022/06/13 08:23:49;;;;;;;17.45;7.57;;;;;;;16.16;65.90;100596.50;4942036;29;20593;-57
2022/06/13 08:26:36;;;;;;;16.95;6.18;;;;;;;16.16;65.89;100604.34;4941267;29;20095;-56
2022/06/13 08:29:25;;;;;;;19.88;6.68;;;;;;;16.15;65.84;100606.09;4941421;29;20069;-57
2022/06/13 08:32:09;;;;;;;17.95;7.05;;;;;;;16.17;65.88;100608.69;4941473;29;20071;-55
2022/06/13 08:34:53;;;;;;;16.88;6.50;;;;;;;16.18;65.60;100602.59;4955833;29;20042;-55
2022/06/13 08:37:37;;;;;;;11.60;5.97;;;;;;;16.18;65.76;100594.75;4956143;29;20082;-56
2022/06/13 08:40:23;;;;;;;10.73;6.47;;;;;;;16.18;65.65;100603.47;4955809;29;20049;-55
2022/06/13 08:43:23;;;;;;;11.95;5.47;;;;;;;16.18;65.60;100599.97;4941354;29;20126;-55
2022/06/13 08:46:39;;;;;;;14.82;5.28;;;;;;;16.18;65.70;100603.47;4940722;29;20597;-55
2022/06/13 08:49:34;;;;;;;12.93;6.05;;;;;;;16.19;65.66;100612.19;4955706;29;20054;-55
2022/06/13 08:52:25;;;;;;;11.88;5.85;;;;;;;16.21;65.73;100618.28;4955525;29;20595;-56
2022/06/13 08:55:11;;;;;;;12.63;5.18;;;;;;;16.24;65.53;100620.94;4955372;29;20097;-55
2022/06/13 08:58:14;;;;;;;20.10;6.65;;;;;;;16.23;65.62;100616.56;4955776;29;20085;-56
2022/06/13 09:01:03;;;;;;;11.85;4.90;;;;;;;16.24;65.48;100616.56;4955063;29;20447;-55
2022/06/13 09:04:03;;;;;;;12.57;5.38;;;;;;;16.24;65.52;100628.78;4955860;29;20109;-55
2022/06/13 09:07:15;;;;;;;12.40;4.60;;;;;;;16.22;65.47;100622.66;4940656;29;20539;-55
2022/06/13 09:10:06;;;;;;;11.55;4.90;;;;;;;16.22;65.39;100622.66;4955356;29;20054;-56
2022/06/13 09:13:05;;;;;;;12.50;5.55;;;;;;;16.24;65.44;100626.16;4940784;29;20526;-55
2022/06/13 09:16:12;;;;;;;10.27;4.88;;;;;;;16.24;65.35;100631.38;4959647;28;20109;-57
2022/06/13 09:19:07;;;;;;;11.45;4.88;;;;;;;16.23;65.97;100633.09;4947441;29;20050;-57
2022/06/13 09:22:21;;;;;;;13.38;4.50;;;;;;;16.21;65.31;100628.75;4946919;29;20089;-56
2022/06/13 09:25:24;;;;;;;8.52;4.50;;;;;;;16.19;65.22;100628.75;4961906;28;20562;-56
2022/06/13 09:28:20;;;;;;;9.65;4.30;;;;;;;16.20;65.21;100637.47;4947011;28;20510;-56
2022/06/13 09:31:18;;;;;;;10.27;4.30;;;;;;;16.21;65.21;100644.44;4947222;29;20054;-56
2022/06/13 09:34:21;;;;;;;13.15;4.35;;;;;;;16.20;65.29;100640.09;4946920;29;20049;-56
2022/06/13 09:37:13;;;;;;;9.52;4.38;;;;;;;16.17;65.25;100646.19;4961496;29;20094;-57
2022/06/13 09:39:58;;;;;;;12.63;5.00;;;;;;;16.17;65.10;100659.25;4947088;29;20054;-57
2022/06/13 09:42:51;;;;;;;11.60;4.20;;;;;;;16.17;65.18;100664.50;4947111;29;20171;-56
2022/06/13 09:45:57;;;;;;;9.48;3.80;;;;;;;16.18;65.45;100652.28;4947314;29;20159;-56
2022/06/13 09:49:06;;;;;;;9.98;3.92;;;;;;;16.17;65.38;100661.88;4961231;29;20085;-56
2022/06/13 09:51:59;;;;;;;11.68;4.43;;;;;;;16.19;65.37;100656.63;4961045;28;20094;-56
2022/06/13 09:55:15;;;;;;;13.63;5.33;;;;;;;16.18;65.33;100655.78;4946374;29;20526;-56
2022/06/13 09:58:18;;;;;;;13.50;4.80;;;;;;;16.19;65.57;100652.31;4946845;29;20582;-56
2022/06/13 10:01:18;;;;;;;12.02;4.57;;;;;;;16.19;65.40;100652.31;4961267;28;20065;-56
2022/06/13 10:04:12;;;;;;;12.20;4.07;;;;;;;16.21;65.26;100654.91;4961452;29;20050;-56
2022/06/13 10:07:23;;;;;;;10.60;4.25;;;;;;;16.21;65.42;100653.16;4961557;28;20097;-55
2022/06/13 10:10:47;;;;;;;15.48;5.05;;;;;;;16.20;65.42;100654.00;4960988;29;20050;-55
2022/06/13 10:14:03;;;;;;;9.77;4.97;;;;;;;16.20;65.45;100656.63;4960348;28;20054;-55
2022/06/13 10:17:19;;;;;;;12.00;4.57;;;;;;;16.22;65.48;100660.13;4946672;29;20058;-55
2022/06/13 10:20:13;;;;;;;10.48;4.47;;;;;;;16.21;65.31;100661.00;4961000;28;20094;-55
2022/06/13 10:23:11;;;;;;;9.48;3.90;;;;;;;16.21;65.31;100654.91;4961094;29;20058;-55
2022/06/13 10:26:11;;;;;;;12.23;4.95;;;;;;;16.23;65.34;100650.56;4946030;28;20065;-55
2022/06/13 10:29:01;;;;;;;14.70;4.40;;;;;;;16.25;65.37;100654.06;4943917;29;20210;-55
2022/06/13 10:32:05;;;;;;;12.98;4.60;;;;;;;16.28;65.11;100656.66;4957966;29;20098;-55
2022/06/13 10:35:11;;;;;;;11.20;4.13;;;;;;;16.28;65.26;100657.53;4943512;29;20070;-55
2022/06/13 10:38:08;;;;;;;13.88;4.60;;;;;;;16.31;65.19;100663.66;4943272;29;20049;-55
2022/06/13 10:40:53;;;;;;;10.85;4.53;;;;;;;16.33;65.20;100652.31;4943622;29;20102;-55
2022/06/13 10:43:38;;;;;;;10.02;4.00;;;;;;;16.35;65.41;100661.03;4957962;29;20415;-56
2022/06/13 10:46:22;;;;;;;11.10;4.20;;;;;;;16.38;65.06;100660.16;4943639;29;20102;-55
2022/06/13 10:49:25;;;;;;;9.70;4.43;;;;;;;16.38;65.04;100660.16;4943596;29;20110;-55
2022/06/13 10:52:16;;;;;;;9.98;4.85;;;;;;;16.40;64.88;100650.56;4943067;29;20102;-55
2022/06/13 10:55:08;;;;;;;9.73;4.30;;;;;;;16.40;65.05;100659.31;4957412;29;20534;-55
2022/06/13 10:58:08;;;;;;;8.57;3.78;;;;;;;16.38;64.82;100662.78;4957595;29;20514;-55
2022/06/13 11:01:12;;;;;;;12.20;4.57;;;;;;;16.37;64.91;100655.78;4957233;29;20045;-55
2022/06/13 11:04:16;;;;;;;10.48;3.92;;;;;;;16.37;64.90;100656.69;4957219;29;20514;-55
2022/06/13 11:07:04;;;;;;;13.23;5.33;;;;;;;16.36;64.74;100652.31;4942804;29;20055;-55
2022/06/13 11:09:57;;;;;;;9.27;4.78;;;;;;;16.37;64.90;100666.25;4942656;29;20330;-55
2022/06/13 11:12:41;;;;;;;9.18;4.00;;;;;;;16.37;64.77;100659.31;4957054;29;20066;-56
2022/06/13 11:25:00;;;;;;;17.92;4.18;;;;;;;16.38;64.79;100663.66;4956856;29;20046;-55
2022/06/13 11:27:48;;;;;;;9.90;4.15;;;;;;;16.40;64.58;100663.66;4957070;29;20522;-55
2022/06/13 11:30:46;;;;;;;10.02;4.75;;;;;;;16.40;64.68;100671.50;4942319;29;20118;-56
2022/06/13 11:33:40;;;;;;;12.40;4.25;;;;;;;16.42;64.65;100672.38;4957153;29;20118;-55
2022/06/13 11:36:30;;;;;;;9.68;4.53;;;;;;;16.42;64.54;100670.66;4956476;29;20570;-57
2022/06/13 11:39:30;;;;;;;10.40;4.40;;;;;;;16.40;64.49;100664.56;4955719;28;20494;-56
2022/06/13 11:42:31;;;;;;;12.10;4.72;;;;;;;16.42;64.51;100668.03;4942724;29;20464;-56
2022/06/13 11:45:27;;;;;;;10.07;3.92;;;;;;;16.42;64.44;100675.88;4956727;29;20061;-56
2022/06/13 11:48:14;;;;;;;8.60;3.65;;;;;;;16.41;64.51;100683.72;4956417;29;20126;-56
2022/06/13 11:51:16;;;;;;;6.40;3.35;;;;;;;16.40;64.51;100682.84;4942437;29;20049;-56
2022/06/13 11:54:00;;;;;;;8.55;3.70;;;;;;;16.41;64.50;100688.94;4956366;29;20054;-56
2022/06/13 11:56:44;;;;;;;;;;;;;;;16.39;64.42;100681.13;4956908;29;20134;-56
2022/06/13 11:59:28;;;;;;;5.28;3.53;;;;;;;16.38;64.61;100676.75;4942237;29;19921;-56
2022/06/13 12:02:39;;;;;;;7.07;3.70;;;;;;;16.40;64.52;100674.13;4956260;29;20114;-56
2022/06/13 12:05:39;;;;;;;8.75;3.53;;;;;;;16.40;64.58;100675.00;4956631;29;20046;-56
2022/06/13 12:08:29;;;;;;;7.40;3.67;;;;;;;16.40;64.17;100669.78;4941657;29;20054;-56
2022/06/13 12:11:13;;;;;;;8.30;3.70;;;;;;;16.39;64.46;100652.34;4955992;29;20546;-57
2022/06/13 12:14:01;;;;;;;9.38;3.83;;;;;;;16.42;64.36;100661.91;4941399;29;20078;-56
2022/06/13 12:17:01;;;;;;;8.98;4.00;;;;;;;16.43;64.48;100664.53;4956187;29;20045;-57
2022/06/13 12:19:54;;;;;;;9.27;4.85;;;;;;;16.44;64.39;100661.03;4941923;29;20133;-56
2022/06/13 12:22:46;;;;;;;7.72;3.10;;;;;;;16.47;64.29;100664.53;4941433;29;20056;-56
2022/06/13 12:25:48;;;;;;;7.30;3.22;;;;;;;16.48;64.47;100653.22;4941624;29;20069;-56
2022/06/13 12:28:48;;;;;;;6.40;3.30;;;;;;;16.47;64.21;100649.72;4941334;29;20098;-56
2022/06/13 12:31:53;;;;;;;11.15;3.72;;;;;;;16.49;64.22;100661.06;4955971;29;20131;-55
2022/06/13 12:34:55;;;;;;;6.68;3.90;;;;;;;16.49;64.34;100670.66;4955789;29;20046;-55
2022/06/13 12:37:45;;;;;;;9.40;3.58;;;;;;;16.50;64.26;100654.09;4941377;29;20054;-55
2022/06/13 12:40:52;;;;;;;5.85;3.53;;;;;;;16.50;64.23;100654.97;4941349;29;20098;-55
2022/06/13 12:43:48;;;;;;;8.90;3.70;;;;;;;16.51;64.28;100663.69;4955548;29;20058;-57
2022/06/13 12:46:41;;;;;;;5.20;3.03;;;;;;;16.52;64.42;100660.19;4941368;29;20129;-55
2022/06/13 12:49:50;;;;;;;10.25;2.90;;;;;;;16.52;64.39;100660.19;4940751;28;20523;-55
2022/06/13 12:52:40;;;;;;;5.22;2.90;;;;;;;16.52;63.96;100663.66;4955675;29;20066;-55
2022/06/13 12:55:29;;;;;;;5.78;2.70;;;;;;;16.52;64.00;100668.91;4941424;29;20057;-55
2022/06/13 12:58:32;;;;;;;7.22;3.53;;;;;;;16.52;64.11;100668.03;4955129;29;20047;-55
2022/06/13 13:01:20;;;;;;;6.30;3.40;;;;;;;16.52;63.85;100665.44;4955369;29;20042;-56
2022/06/13 13:04:21;;;;;;;9.30;3.33;;;;;;;16.51;63.93;100669.78;4940508;29;20126;-55
2022/06/13 13:07:08;;;;;;;3.95;2.80;;;;;;;16.50;64.30;100672.41;4940714;29;20446;-55
2022/06/13 13:10:16;;;;;;;7.40;3.22;;;;;;;16.49;63.87;100668.94;4955500;29;20406;-55
2022/06/13 13:13:29;;;;;;;5.78;2.70;;;;;;;16.48;63.99;100667.19;4941033;29;20116;-55
2022/06/13 13:16:44;;;;;;;5.65;2.75;;;;;;;16.48;64.01;100677.63;4940670;29;20046;-55
2022/06/13 13:20:04;;;;;;;7.22;2.88;;;;;;;16.49;64.05;100673.25;4955820;29;20122;-55
2022/06/13 13:23:07;;;;;;;6.25;3.03;;;;;;;16.49;63.86;100668.94;4944050;29;20582;-55
2022/06/13 13:26:11;;;;;;;5.38;2.83;;;;;;;16.48;63.95;100667.19;4941038;29;20054;-55
2022/06/13 13:29:21;;;;;;;6.45;3.20;;;;;;;16.49;63.91;100671.53;4940761;29;20110;-55
2022/06/13 13:32:29;;;;;;;8.00;2.60;;;;;;;16.47;63.61;100670.66;4941024;29;20058;-55
2022/06/13 13:35:35;;;;;;;4.45;3.17;;;;;;;16.48;63.64;100666.28;4954872;29;20191;-56
2022/06/13 13:38:39;;;;;;;5.63;2.80;;;;;;;16.50;63.80;100672.41;4955490;29;20050;-56
2022/06/13 13:41:36;;;;;;;4.93;2.80;;;;;;;16.49;63.95;100673.25;4955108;29;20057;-56
2022/06/13 13:44:25;;;;;;;5.45;2.47;;;;;;;16.47;63.83;100668.03;4940891;29;20054;-56
2022/06/13 13:47:21;;;;;;;6.60;2.60;;;;;;;16.49;63.78;100670.66;4941081;29;20106;-55